Time;durP1;ratioP1;P1;durP2;ratioP2;P2;SDS_P1;SDS_P2;PMS_P1;PMS_P2;Temp;Humidity;BMP_temperature;BMP_pressure;BME280_temperature;BME280_humidity;BME280_pressure;Samples;Min_cycle;Max_cycle;Signal;HPM_P1;HPM_P2
2023/08/13 00:01:30;;;;;;;5.10;4.70;;;;;;;28.16;85.50;98883.06;4913368;28;103225;-62
2023/08/13 00:03:59;;;;;;;5.40;5.00;;;;;;;28.19;84.54;98878.06;4911122;28;103048;-62
2023/08/13 00:06:27;;;;;;;5.88;5.47;;;;;;;28.21;84.01;98879.72;4915809;28;103118;-62
2023/08/13 00:08:55;;;;;;;4.63;4.32;;;;;;;28.19;83.94;98880.78;4916522;28;103296;-62
2023/08/13 00:11:25;;;;;;;5.17;4.87;;;;;;;28.26;82.90;98885.31;4915114;28;103319;-61
2023/08/13 00:13:53;;;;;;;8.55;7.75;;;;;;;27.37;85.08;98875.25;4913123;28;102879;-61
2023/08/13 00:16:21;;;;;;;7.50;6.90;;;;;;;27.39;86.31;98878.59;4916442;28;102675;-62
2023/08/13 00:18:49;;;;;;;14.93;9.73;;;;;;;26.82;89.72;98876.63;4916199;28;103269;-62
2023/08/13 00:21:17;;;;;;;17.65;10.40;;;;;;;26.21;93.09;98877.84;4915278;28;104281;-61
2023/08/13 00:23:45;;;;;;;21.00;11.77;;;;;;;26.15;94.49;98873.25;4915288;28;103447;-62
2023/08/13 00:26:15;;;;;;;9.10;8.38;;;;;;;26.73;92.24;98867.00;4915720;28;102689;-61
2023/08/13 00:28:45;;;;;;;9.13;8.18;;;;;;;27.09;90.04;98873.91;4916193;28;103425;-61
2023/08/13 00:31:13;;;;;;;6.82;6.32;;;;;;;27.43;88.30;98873.59;4902229;28;103484;-61
2023/08/13 00:33:43;;;;;;;6.57;6.07;;;;;;;27.63;86.78;98877.06;4919408;28;102664;-62
2023/08/13 00:36:11;;;;;;;7.97;7.20;;;;;;;27.44;86.87;98878.00;4900334;28;104466;-61
2023/08/13 00:38:39;;;;;;;7.78;7.10;;;;;;;27.34;86.28;98880.28;4917886;28;103911;-61
2023/08/13 00:41:07;;;;;;;8.55;6.85;;;;;;;26.16;93.35;98885.75;4893676;28;105464;-61
2023/08/13 00:43:37;;;;;;;8.40;6.97;;;;;;;26.12;93.02;98879.03;4921025;28;102726;-62
2023/08/13 00:46:08;;;;;;;5.30;4.90;;;;;;;26.32;92.59;98886.19;4918993;28;104164;-61
2023/08/13 00:48:38;;;;;;;5.60;5.07;;;;;;;26.98;89.05;98881.63;4907374;28;104154;-61
2023/08/13 00:51:08;;;;;;;3.90;3.60;;;;;;;27.33;86.96;98884.03;4916586;28;103306;-62
2023/08/13 00:53:44;;;;;;;4.50;4.10;;;;;;;27.50;86.09;98882.56;4892537;28;102683;-61
2023/08/13 00:56:14;;;;;;;4.10;3.80;;;;;;;27.31;86.13;98884.25;4916718;28;103944;-61
2023/08/13 00:58:43;;;;;;;5.78;5.28;;;;;;;27.43;84.96;98873.59;4901550;28;104457;-61
2023/08/13 01:01:13;;;;;;;5.70;5.30;;;;;;;27.37;85.00;98874.44;4913855;28;104085;-62
2023/08/13 01:03:42;;;;;;;4.10;3.80;;;;;;;27.56;84.34;98876.28;4916423;28;102953;-61
2023/08/13 01:06:16;;;;;;;4.50;4.20;;;;;;;27.57;83.98;98875.22;4918175;28;104112;-61
2023/08/13 01:08:57;;;;;;;6.78;6.18;;;;;;;26.87;84.95;98876.84;4919267;28;103577;-62
2023/08/13 01:11:35;;;;;;;7.85;6.90;;;;;;;26.61;86.89;98879.53;4918165;28;103192;-61
2023/08/13 01:14:12;;;;;;;7.88;7.13;;;;;;;26.20;89.27;98876.16;4901335;28;102814;-61
2023/08/13 01:16:44;;;;;;;6.30;5.80;;;;;;;26.59;89.10;98878.91;4918529;28;102943;-61
2023/08/13 01:19:14;;;;;;;3.97;3.67;;;;;;;27.04;87.26;98878.06;4917561;28;105910;-62
2023/08/13 01:21:44;;;;;;;4.85;4.45;;;;;;;27.20;85.85;98874.06;4915603;28;104228;-61
2023/08/13 01:24:14;;;;;;;4.50;4.07;;;;;;;27.30;85.31;98884.47;4916791;28;102750;-61
2023/08/13 01:26:51;;;;;;;6.88;6.28;;;;;;;27.26;84.20;98885.94;4917721;28;104537;-62
2023/08/13 01:29:30;;;;;;;5.82;5.32;;;;;;;27.13;84.21;98881.38;4914588;28;105125;-61
2023/08/13 01:32:03;;;;;;;5.15;4.65;;;;;;;27.00;85.12;98876.00;4895620;28;103034;-62
2023/08/13 01:34:32;;;;;;;7.83;6.20;;;;;;;26.55;86.40;98884.97;4919565;28;102854;-61
2023/08/13 01:37:01;;;;;;;4.80;4.40;;;;;;;26.85;86.51;98883.50;4920897;28;104303;-62
2023/08/13 01:39:30;;;;;;;4.97;4.47;;;;;;;27.02;85.37;98877.44;4900492;28;106439;-62
2023/08/13 01:41:59;;;;;;;4.25;3.85;;;;;;;27.12;85.04;98870.75;4900296;28;103216;-61
2023/08/13 01:44:27;;;;;;;5.22;4.90;;;;;;;27.09;84.32;98863.84;4916856;28;102815;-61
2023/08/13 01:46:55;;;;;;;4.50;4.10;;;;;;;27.04;84.31;98875.34;4917886;28;103982;-62
2023/08/13 01:49:23;;;;;;;6.60;6.00;;;;;;;26.48;84.89;98874.94;4917246;28;103319;-62
2023/08/13 01:51:51;;;;;;;5.25;4.78;;;;;;;26.34;88.10;98883.25;4915913;28;103241;-62
2023/08/13 01:54:19;;;;;;;7.65;6.38;;;;;;;26.00;89.64;98888.78;4898463;28;102722;-62
2023/08/13 01:56:48;;;;;;;9.15;8.27;;;;;;;24.87;95.82;98877.63;4918420;28;103907;-62
2023/08/13 01:59:17;;;;;;;8.50;7.70;;;;;;;24.90;96.51;98878.03;4900184;28;106103;-62
2023/08/13 02:01:47;;;;;;;4.60;4.25;;;;;;;26.03;92.53;98874.84;4900474;28;104476;-62
2023/08/13 02:04:16;;;;;;;4.10;3.80;;;;;;;26.53;89.98;98877.03;4915067;28;102677;-61
2023/08/13 02:06:44;;;;;;;4.10;3.80;;;;;;;26.74;88.34;98879.53;4910085;28;104054;-61
2023/08/13 02:09:12;;;;;;;4.63;3.92;;;;;;;26.89;87.21;98888.28;4896754;28;103389;-61
2023/08/13 02:11:41;;;;;;;4.65;4.30;;;;;;;26.83;86.29;98893.75;4900237;28;103031;-61
2023/08/13 02:14:10;;;;;;;6.60;4.50;;;;;;;26.85;86.30;98886.22;4910788;28;103087;-61
2023/08/13 02:16:38;;;;;;;6.37;5.77;;;;;;;26.28;87.62;98895.75;4899475;28;102910;-61
2023/08/13 02:19:06;;;;;;;4.83;4.50;;;;;;;26.52;87.45;98897.03;4917609;28;104089;-61
2023/08/13 02:21:35;;;;;;;4.15;3.83;;;;;;;26.73;86.19;98888.69;4915253;28;103202;-62
2023/08/13 02:24:03;;;;;;;4.30;3.90;;;;;;;26.81;85.93;98891.22;4905936;28;102713;-61
2023/08/13 02:26:32;;;;;;;4.60;4.20;;;;;;;26.92;85.50;98895.19;4916514;28;102955;-61
2023/08/13 02:29:00;;;;;;;6.22;5.07;;;;;;;26.84;85.16;98885.38;4913283;28;104185;-62
2023/08/13 02:31:29;;;;;;;6.25;5.35;;;;;;;26.67;85.39;98894.09;4914487;28;104067;-61
2023/08/13 02:34:00;;;;;;;5.13;4.63;;;;;;;26.61;86.48;98897.69;4894638;28;102844;-61
2023/08/13 02:36:28;;;;;;;8.23;6.38;;;;;;;25.60;89.82;98885.94;4900393;28;102904;-62
2023/08/13 02:38:56;;;;;;;8.20;6.60;;;;;;;25.27;93.92;98884.94;4896204;28;105315;-61
2023/08/13 02:41:24;;;;;;;8.02;7.20;;;;;;;25.26;94.92;98883.28;4918620;28;103056;-61
2023/08/13 02:43:53;;;;;;;5.00;4.60;;;;;;;26.03;92.46;98885.69;4890928;28;102784;-61
2023/08/13 02:46:22;;;;;;;4.32;4.03;;;;;;;26.46;90.16;98889.75;4914107;28;104536;-61
2023/08/13 02:48:54;;;;;;;3.88;3.58;;;;;;;26.67;88.55;98878.69;4905407;28;104185;-61
2023/08/13 02:51:26;;;;;;;4.05;3.75;;;;;;;26.73;87.47;98882.44;4913850;28;104386;-61
2023/08/13 02:53:54;;;;;;;4.00;3.70;;;;;;;26.79;86.63;98877.06;4896057;28;103090;-62
2023/08/13 02:56:22;;;;;;;6.10;5.60;;;;;;;26.20;87.37;98876.16;4917994;28;104022;-62
2023/08/13 02:58:50;;;;;;;7.35;6.65;;;;;;;25.16;92.31;98861.16;4903839;28;103529;-61
2023/08/13 03:01:18;;;;;;;5.90;5.40;;;;;;;25.54;93.45;98875.97;4914637;28;104338;-61
2023/08/13 03:03:48;;;;;;;4.68;4.28;;;;;;;26.26;90.10;98867.22;4895364;28;102944;-61
2023/08/13 03:06:22;;;;;;;5.70;5.17;;;;;;;26.15;89.57;98873.25;4915755;28;102894;-61
2023/08/13 03:08:50;;;;;;;7.17;6.30;;;;;;;25.58;91.55;98865.56;4915279;28;103346;-61
2023/08/13 03:11:18;;;;;;;7.50;6.80;;;;;;;25.43;92.77;98868.41;4909473;28;104165;-61
2023/08/13 03:13:47;;;;;;;5.50;4.88;;;;;;;25.90;92.18;98867.53;4911114;28;102792;-62
2023/08/13 03:16:17;;;;;;;4.65;4.22;;;;;;;26.32;90.52;98869.09;4901682;28;104175;-61
2023/08/13 03:18:46;;;;;;;6.50;5.90;;;;;;;26.09;90.69;98869.47;4906690;28;103277;-61
2023/08/13 03:21:17;;;;;;;4.07;3.70;;;;;;;26.37;89.70;98872.88;4916428;28;103097;-61
2023/08/13 03:23:47;;;;;;;6.85;4.50;;;;;;;26.58;88.69;98869.13;4912443;28;102693;-61
2023/08/13 03:26:15;;;;;;;6.10;5.03;;;;;;;26.43;88.25;98872.03;4892500;28;104222;-61
2023/08/13 03:28:44;;;;;;;5.85;5.25;;;;;;;26.46;88.02;98870.78;4894995;28;104116;-61
2023/08/13 03:31:18;;;;;;;3.90;3.60;;;;;;;26.70;87.77;98872.84;4916359;28;103254;-61
2023/08/13 03:33:55;;;;;;;6.95;5.85;;;;;;;25.88;89.66;98862.31;4913592;28;102810;-61
2023/08/13 03:36:24;;;;;;;4.97;4.57;;;;;;;25.78;93.39;98866.47;4916501;28;103809;-61
2023/08/13 03:38:53;;;;;;;5.43;4.97;;;;;;;26.10;91.64;98870.28;4898344;28;104210;-61
2023/08/13 03:41:22;;;;;;;5.38;4.50;;;;;;;26.03;91.57;98870.28;4915307;28;103379;-61
2023/08/13 03:43:50;;;;;;;3.57;3.37;;;;;;;26.42;89.88;98874.94;4913099;28;102726;-63
2023/08/13 03:46:18;;;;;;;3.70;3.40;;;;;;;26.64;88.86;98867.47;4913171;28;103189;-61
2023/08/13 03:48:46;;;;;;;4.35;3.67;;;;;;;26.62;88.77;98862.22;4917651;28;104059;-61
2023/08/13 03:51:14;;;;;;;3.25;3.00;;;;;;;26.75;88.10;98856.00;4898029;28;104211;-62
2023/08/13 03:53:43;;;;;;;3.42;2.92;;;;;;;26.86;86.89;98861.59;4909830;28;102932;-62
2023/08/13 03:56:12;;;;;;;3.67;3.30;;;;;;;26.93;86.27;98862.44;4915065;28;102696;-61
2023/08/13 03:58:40;;;;;;;7.55;5.68;;;;;;;25.45;91.13;98860.06;4911181;28;103292;-62
2023/08/13 04:01:12;;;;;;;3.80;3.50;;;;;;;26.08;90.53;98864.25;4914923;28;103244;-62
2023/08/13 04:03:43;;;;;;;4.68;4.25;;;;;;;26.50;88.93;98866.59;4899060;28;102757;-61
2023/08/13 04:06:12;;;;;;;3.65;3.38;;;;;;;26.79;87.19;98871.63;4903277;28;102724;-61
2023/08/13 04:08:40;;;;;;;4.68;4.25;;;;;;;26.68;86.39;98863.28;4901138;28;104433;-61
2023/08/13 04:11:08;;;;;;;3.85;3.55;;;;;;;26.82;86.14;98876.63;4918657;28;103613;-61
2023/08/13 04:13:37;;;;;;;3.83;3.28;;;;;;;26.90;85.93;98868.28;4918662;28;102801;-61
2023/08/13 04:16:05;;;;;;;7.13;4.70;;;;;;;26.48;86.33;98872.25;4894819;28;102753;-62
2023/08/13 04:18:36;;;;;;;5.90;5.40;;;;;;;25.92;89.27;98868.16;4899739;28;104206;-62
2023/08/13 04:21:04;;;;;;;3.95;3.55;;;;;;;26.38;88.50;98873.69;4917665;28;102948;-62
2023/08/13 04:23:32;;;;;;;3.50;3.22;;;;;;;26.72;86.77;98865.38;4903236;28;102759;-62
2023/08/13 04:26:00;;;;;;;4.65;4.35;;;;;;;26.49;87.09;98882.03;4901391;28;102733;-62
2023/08/13 04:28:29;;;;;;;3.22;3.00;;;;;;;26.74;86.28;98873.28;4911301;28;105942;-62
2023/08/13 04:30:59;;;;;;;3.83;3.27;;;;;;;26.85;85.97;98876.22;4903019;28;104124;-62
2023/08/13 04:33:30;;;;;;;4.95;4.28;;;;;;;26.88;85.55;98870.38;4905837;28;102991;-62
2023/08/13 04:35:58;;;;;;;6.13;5.72;;;;;;;26.64;86.99;98865.56;4916442;28;104208;-62
2023/08/13 04:38:28;;;;;;;4.53;4.20;;;;;;;26.89;86.61;98869.31;4896443;28;104271;-62
2023/08/13 04:40:59;;;;;;;4.10;3.70;;;;;;;27.11;85.54;98863.66;4902510;28;106243;-62
2023/08/13 04:43:27;;;;;;;5.10;4.70;;;;;;;27.10;85.32;98845.72;4901108;28;103149;-62
2023/08/13 04:45:56;;;;;;;7.90;6.13;;;;;;;26.72;86.30;98854.53;4918232;28;102755;-61
2023/08/13 04:48:45;;;;;;;6.40;5.90;;;;;;;26.54;87.71;98850.78;4902220;28;106207;-62
2023/08/13 04:51:22;;;;;;;6.40;5.90;;;;;;;26.51;88.78;98857.44;4900444;28;104564;-62
2023/08/13 04:53:50;;;;;;;5.97;5.38;;;;;;;26.77;87.76;98856.59;4898954;28;102712;-62
2023/08/13 04:56:20;;;;;;;4.77;4.47;;;;;;;26.88;88.28;98864.13;4896935;28;103807;-62
2023/08/13 04:58:49;;;;;;;5.32;4.82;;;;;;;27.01;87.25;98875.78;4900345;28;104945;-62
2023/08/13 05:01:18;;;;;;;5.20;4.80;;;;;;;27.16;87.04;98888.25;4900767;28;103907;-62
2023/08/13 05:03:52;;;;;;;5.93;5.43;;;;;;;27.19;86.95;98890.53;4914646;28;102992;-62
2023/08/13 05:06:20;;;;;;;5.00;4.60;;;;;;;27.27;86.55;98880.31;4916769;28;104283;-62
2023/08/13 05:08:47;;;;;;;6.80;6.20;;;;;;;27.28;86.25;98876.56;4918414;28;104018;-62
2023/08/13 05:11:16;;;;;;;7.60;7.00;;;;;;;27.18;86.40;98869.88;4899954;28;103186;-62
2023/08/13 05:13:45;;;;;;;5.30;4.90;;;;;;;27.34;86.18;98874.88;4901001;28;102908;-62
2023/08/13 05:16:14;;;;;;;4.90;4.50;;;;;;;27.46;86.14;98881.31;4914611;28;104086;-62
2023/08/13 05:18:43;;;;;;;5.95;5.45;;;;;;;27.47;86.06;98891.97;4899106;28;104490;-61
2023/08/13 05:21:13;;;;;;;8.05;7.18;;;;;;;27.31;86.52;98878.00;4902232;28;104792;-61
2023/08/13 05:23:41;;;;;;;5.82;5.30;;;;;;;27.48;86.47;98881.94;4899214;28;102705;-61
2023/08/13 05:26:09;;;;;;;5.78;5.38;;;;;;;27.56;85.90;98876.28;4917787;28;104469;-61
2023/08/13 05:28:38;;;;;;;7.07;6.47;;;;;;;27.23;87.46;98878.25;4900570;28;103475;-61
2023/08/13 05:31:07;;;;;;;6.18;5.78;;;;;;;27.48;86.56;98876.53;4910488;28;104170;-61
2023/08/13 05:33:35;;;;;;;6.97;6.47;;;;;;;27.37;87.09;98879.88;4903149;28;102699;-61
2023/08/13 05:36:03;;;;;;;7.03;6.43;;;;;;;27.47;86.24;98886.53;4900331;28;104112;-61
2023/08/13 05:38:34;;;;;;;7.07;6.40;;;;;;;27.64;86.53;98892.31;4915066;28;104030;-61
2023/08/13 05:41:05;;;;;;;5.50;5.10;;;;;;;27.78;85.93;98890.38;4913758;28;103578;-61
2023/08/13 05:43:33;;;;;;;9.02;8.15;;;;;;;27.19;86.82;98887.84;4916701;28;102873;-62
2023/08/13 05:46:01;;;;;;;9.23;8.52;;;;;;;26.89;89.48;98882.88;4916169;28;103785;-62
2023/08/13 05:48:29;;;;;;;9.60;8.73;;;;;;;26.82;89.82;98892.91;4897962;28;105170;-61
2023/08/13 05:50:57;;;;;;;10.48;9.57;;;;;;;26.28;93.13;98897.63;4895816;28;103428;-62
2023/08/13 05:53:25;;;;;;;8.32;7.60;;;;;;;26.88;92.42;98892.06;4917095;28;102743;-62
2023/08/13 05:55:58;;;;;;;8.40;7.80;;;;;;;26.97;91.30;98904.38;4918356;28;104366;-62
2023/08/13 05:58:27;;;;;;;5.65;5.25;;;;;;;27.48;89.73;98898.22;4914850;28;104192;-62
2023/08/13 06:00:56;;;;;;;5.63;5.22;;;;;;;27.69;88.74;98892.50;4915657;28;103176;-62
2023/08/13 06:03:24;;;;;;;9.45;8.48;;;;;;;27.12;89.57;98892.47;4908391;28;102897;-61
2023/08/13 06:05:56;;;;;;;8.98;8.27;;;;;;;26.88;91.88;98892.06;4913604;28;104425;-62
2023/08/13 06:08:31;;;;;;;7.13;6.50;;;;;;;27.20;90.89;98886.81;4899854;28;103068;-61
2023/08/13 06:11:03;;;;;;;5.75;5.35;;;;;;;27.53;90.03;98890.28;4913723;28;104940;-61
2023/08/13 06:13:38;;;;;;;5.07;4.70;;;;;;;27.74;89.15;98892.69;4917298;28;102702;-62
2023/08/13 06:16:07;;;;;;;5.90;5.50;;;;;;;27.80;88.95;98905.38;4915956;28;102971;-61
2023/08/13 06:18:36;;;;;;;6.10;5.60;;;;;;;27.79;88.78;98901.00;4914915;28;103931;-61
2023/08/13 06:21:05;;;;;;;6.00;5.60;;;;;;;27.79;88.54;98895.56;4911207;28;103251;-62
2023/08/13 06:23:33;;;;;;;5.40;5.00;;;;;;;27.94;88.29;98885.28;4914039;28;102565;-62
2023/08/13 06:26:03;;;;;;;6.63;6.13;;;;;;;27.96;87.70;98879.59;4916108;28;104083;-61
2023/08/13 06:28:31;;;;;;;6.30;5.90;;;;;;;27.96;87.54;98880.44;4893774;28;104728;-61
2023/08/13 06:31:02;;;;;;;5.70;5.30;;;;;;;28.09;87.42;98875.00;4916975;28;103488;-61
2023/08/13 06:33:31;;;;;;;5.80;5.30;;;;;;;28.18;86.85;98884.53;4908782;28;102866;-61
2023/08/13 06:35:59;;;;;;;7.15;6.65;;;;;;;27.97;87.29;98887.56;4913689;28;103685;-62
2023/08/13 06:38:31;;;;;;;6.60;6.10;;;;;;;27.86;87.22;98885.53;4914988;28;104640;-61
2023/08/13 06:41:05;;;;;;;6.40;5.90;;;;;;;27.93;88.32;98891.75;4915667;28;103148;-62
2023/08/13 06:43:36;;;;;;;9.10;8.30;;;;;;;27.71;88.50;98897.69;4913985;28;103127;-62
2023/08/13 06:46:04;;;;;;;7.25;6.72;;;;;;;27.81;89.40;98909.78;4916905;28;104516;-61
2023/08/13 06:48:36;;;;;;;6.97;6.47;;;;;;;27.73;90.25;98901.88;4913987;28;103136;-62
2023/08/13 06:51:05;;;;;;;5.75;5.25;;;;;;;27.99;88.75;98900.91;4913426;28;103324;-62
2023/08/13 06:53:33;;;;;;;5.75;5.35;;;;;;;28.08;87.99;98900.47;4914322;28;102745;-62
2023/08/13 06:56:03;;;;;;;5.68;5.18;;;;;;;28.21;87.36;98898.75;4910460;28;104951;-62
2023/08/13 06:58:32;;;;;;;4.93;4.60;;;;;;;28.36;87.13;98902.81;4909030;28;103907;-62
2023/08/13 07:01:01;;;;;;;6.10;5.60;;;;;;;28.42;86.41;98901.09;4911856;28;104299;-62
2023/08/13 07:03:29;;;;;;;8.63;7.85;;;;;;;27.84;88.16;98898.50;4911935;28;102708;-62
2023/08/13 07:05:57;;;;;;;5.28;4.88;;;;;;;28.35;87.76;98898.41;4913969;28;103947;-61
2023/08/13 07:08:26;;;;;;;6.00;5.60;;;;;;;28.48;86.85;98900.22;4910129;28;104324;-62
2023/08/13 07:10:55;;;;;;;5.88;5.38;;;;;;;28.41;86.98;98910.31;4914207;28;104182;-59
2023/08/13 07:13:25;;;;;;;7.00;6.40;;;;;;;28.26;87.73;98912.50;4916749;28;104015;-59
2023/08/13 07:15:56;;;;;;;7.57;6.97;;;;;;;28.05;88.69;98906.34;4911774;28;103057;-59
2023/08/13 07:18:26;;;;;;;6.10;5.60;;;;;;;28.40;87.86;98908.63;4918356;28;103285;-62
2023/08/13 07:20:56;;;;;;;6.90;6.40;;;;;;;28.41;87.42;98911.13;4909677;28;103249;-62
2023/08/13 07:23:25;;;;;;;6.57;6.07;;;;;;;28.53;86.94;98903.09;4916266;28;102937;-62
2023/08/13 07:25:55;;;;;;;5.50;5.10;;;;;;;28.64;86.84;98899.69;4916264;28;104171;-62
2023/08/13 07:28:24;;;;;;;8.00;7.30;;;;;;;27.96;88.93;98899.47;4915146;28;104170;-62
2023/08/13 07:30:52;;;;;;;8.50;7.82;;;;;;;27.53;92.04;98901.97;4916078;28;103337;-62
2023/08/13 07:33:24;;;;;;;5.90;5.43;;;;;;;28.22;90.70;98905.81;4916862;28;102865;-62
2023/08/13 07:35:54;;;;;;;6.57;6.05;;;;;;;28.63;88.46;98911.63;4919932;28;104009;-62
2023/08/13 07:38:23;;;;;;;9.02;8.30;;;;;;;28.81;87.63;98911.69;4914289;28;103296;-62
2023/08/13 07:40:53;;;;;;;13.02;11.93;;;;;;;28.79;86.45;98911.09;4916231;28;103265;-62
2023/08/13 07:43:23;;;;;;;8.48;7.78;;;;;;;28.45;87.78;98909.63;4895342;28;102987;-62
2023/08/13 07:45:52;;;;;;;8.52;7.82;;;;;;;28.91;86.67;98905.75;4918593;28;103886;-62
2023/08/13 07:48:24;;;;;;;6.25;5.72;;;;;;;29.16;86.25;98904.66;4914919;28;103431;-62
2023/08/13 07:50:54;;;;;;;7.43;6.93;;;;;;;28.80;86.33;98904.56;4912393;28;103487;-62
2023/08/13 07:53:24;;;;;;;6.13;5.63;;;;;;;29.10;86.32;98905.56;4898094;28;102765;-62
2023/08/13 07:55:53;;;;;;;6.25;5.75;;;;;;;29.12;85.37;98908.03;4917259;28;103565;-62
2023/08/13 07:58:22;;;;;;;4.93;4.63;;;;;;;29.45;85.11;98907.72;4914315;28;104097;-62
2023/08/13 08:00:50;;;;;;;5.00;4.67;;;;;;;29.56;84.96;98909.72;4913437;28;103237;-62
2023/08/13 08:03:19;;;;;;;6.72;6.22;;;;;;;29.13;85.41;98905.13;4916479;28;102832;-62
2023/08/13 08:05:51;;;;;;;7.22;6.63;;;;;;;29.24;85.76;98903.56;4917321;28;104264;-62
2023/08/13 08:08:20;;;;;;;6.32;5.82;;;;;;;29.49;84.51;98903.50;4917431;28;103156;-62
2023/08/13 08:10:49;;;;;;;5.38;4.97;;;;;;;29.40;84.30;98900.25;4917821;28;103310;-62
2023/08/13 08:13:18;;;;;;;5.33;4.93;;;;;;;29.80;83.32;98903.38;4917898;28;103073;-62
2023/08/13 08:15:47;;;;;;;6.43;5.85;;;;;;;29.33;85.16;98905.75;4913545;28;102863;-62
2023/08/13 08:18:17;;;;;;;5.88;5.38;;;;;;;29.63;84.30;98905.00;4917321;28;104191;-62
2023/08/13 08:20:46;;;;;;;5.10;4.70;;;;;;;29.86;84.22;98911.47;4916802;28;103070;-62
2023/08/13 08:23:18;;;;;;;4.82;4.45;;;;;;;30.14;82.88;98891.78;4917102;28;102896;-62
2023/08/13 08:25:48;;;;;;;4.38;4.07;;;;;;;30.27;82.02;98882.59;4918954;28;103828;-61
2023/08/13 08:28:19;;;;;;;7.45;6.85;;;;;;;29.36;84.66;98879.16;4920812;28;103014;-61
2023/08/13 08:30:48;;;;;;;7.50;6.90;;;;;;;29.37;84.98;98878.94;4904874;28;105804;-61
2023/08/13 08:33:16;;;;;;;6.80;6.22;;;;;;;29.25;86.39;98887.00;4918035;28;102718;-61
2023/08/13 08:35:46;;;;;;;5.50;5.00;;;;;;;30.17;82.62;98894.06;4903488;28;103963;-61
2023/08/13 08:38:16;;;;;;;6.03;5.53;;;;;;;29.91;82.01;98897.13;4918329;28;103291;-61
2023/08/13 08:40:48;;;;;;;4.95;4.45;;;;;;;29.96;84.55;98883.66;4916588;28;103317;-61
2023/08/13 08:43:19;;;;;;;6.53;6.00;;;;;;;29.21;86.10;98888.50;4917722;28;103804;-61
2023/08/13 08:45:48;;;;;;;4.45;4.07;;;;;;;30.06;85.08;98875.78;4919461;28;102638;-61
2023/08/13 08:48:18;;;;;;;5.95;5.32;;;;;;;30.19;83.33;98889.19;4917980;28;103045;-61
2023/08/13 08:50:48;;;;;;;4.55;4.18;;;;;;;30.27;81.17;98880.69;4919305;28;103591;-62
2023/08/13 08:53:18;;;;;;;4.60;4.20;;;;;;;30.52;80.96;98882.44;4928268;28;102561;-62
2023/08/13 08:55:52;;;;;;;4.32;3.97;;;;;;;30.54;79.65;98891.22;4924227;28;104147;-61
2023/08/13 08:58:21;;;;;;;4.30;4.00;;;;;;;30.97;78.62;98880.84;4924365;28;103713;-62
2023/08/13 09:00:49;;;;;;;4.50;4.20;;;;;;;30.77;77.20;98880.34;4900361;28;103228;-63
2023/08/13 09:03:18;;;;;;;5.53;5.03;;;;;;;30.07;81.42;98890.22;4919058;28;102981;-61
2023/08/13 09:05:46;;;;;;;5.05;4.43;;;;;;;30.31;81.58;98887.34;4917483;28;104253;-61
2023/08/13 09:08:14;;;;;;;3.55;3.25;;;;;;;31.00;77.49;98885.84;4917752;28;104367;-61
2023/08/13 09:10:45;;;;;;;4.68;3.90;;;;;;;30.99;76.84;98887.72;4903906;28;104180;-60
2023/08/13 09:13:13;;;;;;;3.72;3.42;;;;;;;30.85;78.02;98893.66;4919395;28;102662;-61
2023/08/13 09:15:44;;;;;;;3.90;3.60;;;;;;;30.76;77.54;98886.88;4901955;28;102954;-61
2023/08/13 09:18:12;;;;;;;3.40;3.10;;;;;;;31.00;79.33;98880.38;4897513;28;104383;-61
2023/08/13 09:20:45;;;;;;;3.95;3.65;;;;;;;30.53;78.98;98878.66;4920588;28;103987;-61
2023/08/13 09:23:21;;;;;;;3.73;3.43;;;;;;;30.90;79.40;98870.03;4920392;28;102704;-61
2023/08/13 09:25:55;;;;;;;3.97;3.58;;;;;;;31.21;77.74;98877.06;4905812;28;103761;-61
2023/08/13 09:28:24;;;;;;;3.60;3.30;;;;;;;31.73;74.91;98866.16;4925336;28;104065;-61
2023/08/13 09:30:59;;;;;;;4.18;3.75;;;;;;;31.33;75.51;98855.19;4918772;28;103180;-63
2023/08/13 09:33:31;;;;;;;3.70;3.40;;;;;;;32.25;72.33;98845.91;4921178;28;102911;-63
2023/08/13 09:36:00;;;;;;;7.68;5.60;;;;;;;31.98;73.65;98842.06;4925746;28;102985;-63
2023/08/13 09:38:28;;;;;;;3.58;3.25;;;;;;;32.56;72.56;98834.41;4921541;28;103328;-62
2023/08/13 09:40:58;;;;;;;3.80;3.50;;;;;;;32.31;73.36;98836.69;4916906;28;104394;-60
2023/08/13 09:43:29;;;;;;;4.40;3.50;;;;;;;32.23;74.62;98842.56;4923758;28;104097;-61
2023/08/13 09:46:06;;;;;;;3.50;3.20;;;;;;;32.43;71.17;98837.44;4906632;28;104461;-61
2023/08/13 09:48:40;;;;;;;3.63;3.10;;;;;;;32.75;69.54;98839.63;4924011;28;103883;-62
2023/08/13 09:51:11;;;;;;;3.65;3.30;;;;;;;33.34;68.15;98827.94;4919920;28;103348;-63
2023/08/13 09:54:02;;;;;;;3.75;3.20;;;;;;;33.27;69.85;98821.81;4927410;28;102823;-62
2023/08/13 09:56:32;;;;;;;3.53;3.22;;;;;;;33.05;71.43;98826.41;4924336;28;103489;-61
2023/08/13 09:59:01;;;;;;;4.03;3.63;;;;;;;32.55;70.23;98824.56;4921425;28;103266;-63
2023/08/13 10:01:30;;;;;;;5.25;3.80;;;;;;;32.76;66.75;98824.88;4920789;28;103562;-62
2023/08/13 10:03:59;;;;;;;5.27;4.30;;;;;;;31.34;72.89;98830.41;4917817;28;102930;-63
2023/08/13 10:06:28;;;;;;;3.80;3.40;;;;;;;32.38;72.22;98823.69;4919231;28;102878;-61
2023/08/13 10:09:03;;;;;;;4.23;3.83;;;;;;;30.64;77.86;98821.41;4924091;28;103760;-60
2023/08/13 10:11:33;;;;;;;3.70;3.40;;;;;;;31.70;74.54;98822.94;4919413;28;104614;-59
2023/08/13 10:14:02;;;;;;;3.83;3.50;;;;;;;32.95;69.26;98818.88;4912634;28;102930;-64
2023/08/13 10:16:30;;;;;;;3.70;3.40;;;;;;;33.43;66.62;98810.00;4922444;28;102811;-62
2023/08/13 10:19:02;;;;;;;3.63;3.33;;;;;;;33.67;66.78;98816.88;4922020;28;104248;-60
2023/08/13 10:21:34;;;;;;;4.18;3.70;;;;;;;32.45;70.46;98807.16;4919784;28;103863;-62
2023/08/13 10:24:03;;;;;;;3.60;3.30;;;;;;;33.37;65.37;98804.69;4919555;28;103182;-60
2023/08/13 10:26:33;;;;;;;3.42;3.13;;;;;;;33.91;67.40;98805.63;4903765;28;102881;-60
2023/08/13 10:29:14;;;;;;;3.70;3.40;;;;;;;32.81;65.55;98811.28;4921982;28;103055;-60
2023/08/13 10:31:49;;;;;;;3.63;3.33;;;;;;;33.15;66.28;98810.16;4920289;28;103171;-60
2023/08/13 10:34:21;;;;;;;3.25;2.95;;;;;;;33.78;66.97;98813.16;4900583;28;103114;-60
2023/08/13 10:36:55;;;;;;;3.87;3.30;;;;;;;33.23;67.49;98802.34;4919738;28;103866;-60
2023/08/13 10:39:30;;;;;;;3.50;3.00;;;;;;;33.71;64.77;98807.03;4922710;28;103291;-62
2023/08/13 10:41:59;;;;;;;4.13;3.70;;;;;;;31.26;69.41;98808.13;4922023;28;104304;-62
2023/08/13 10:44:29;;;;;;;4.37;3.63;;;;;;;29.86;74.74;98813.44;4919758;28;103105;-62
2023/08/13 10:46:58;;;;;;;3.20;2.90;;;;;;;32.64;68.37;98801.19;4904297;28;103028;-62
2023/08/13 10:49:28;;;;;;;4.75;4.30;;;;;;;32.23;68.17;98795.25;4919737;28;103111;-62
2023/08/13 10:52:01;;;;;;;4.53;4.07;;;;;;;30.50;76.02;98808.25;4919184;28;103559;-62
2023/08/13 10:54:29;;;;;;;3.72;3.42;;;;;;;31.15;74.58;98796.16;4919521;28;102832;-62
2023/08/13 10:57:00;;;;;;;4.68;3.90;;;;;;;31.00;73.17;98793.09;4917604;28;102815;-61
2023/08/13 10:59:29;;;;;;;4.53;4.13;;;;;;;30.42;74.33;98802.09;4916754;28;104062;-61
2023/08/13 11:02:12;;;;;;;4.07;3.78;;;;;;;30.08;77.69;98797.38;4917511;28;103264;-62
2023/08/13 11:04:45;;;;;;;3.90;3.60;;;;;;;30.24;77.20;98802.13;4915020;28;102908;-61
2023/08/13 11:07:15;;;;;;;3.58;3.28;;;;;;;30.86;73.81;98802.56;4917265;28;104107;-61
2023/08/13 11:09:43;;;;;;;3.63;3.30;;;;;;;31.66;70.13;98797.22;4922302;28;103723;-61
2023/08/13 11:12:12;;;;;;;3.80;3.50;;;;;;;31.06;73.26;98800.31;4916554;28;103386;-62
2023/08/13 11:14:41;;;;;;;3.87;3.47;;;;;;;31.58;71.27;98796.53;4920979;28;102946;-62
2023/08/13 11:17:09;;;;;;;3.67;3.37;;;;;;;31.79;70.09;98802.38;4918448;28;103976;-62
2023/08/13 11:19:37;;;;;;;3.70;3.40;;;;;;;31.85;69.76;98806.88;4906412;28;104201;-62
2023/08/13 11:22:05;;;;;;;5.13;4.63;;;;;;;30.26;78.54;98813.63;4919370;28;102943;-64
2023/08/13 11:24:33;;;;;;;4.47;4.07;;;;;;;31.32;76.50;98807.16;4922781;28;102725;-65
2023/08/13 11:27:01;;;;;;;6.20;5.63;;;;;;;30.29;81.54;98805.00;4908461;28;103947;-59
2023/08/13 11:29:33;;;;;;;6.30;5.70;;;;;;;30.24;80.94;98810.31;4921794;28;104334;-59
2023/08/13 11:32:01;;;;;;;6.00;5.40;;;;;;;29.92;82.02;98814.41;4920359;28;103259;-59
2023/08/13 11:34:30;;;;;;;6.00;5.50;;;;;;;30.09;81.17;98809.13;4921926;28;103392;-59
2023/08/13 11:37:06;;;;;;;4.57;4.18;;;;;;;31.63;75.96;98803.16;4919120;28;102912;-59